createdAt,value
2017-08-21T00:02:18.290Z,4.32
2017-08-21T00:04:45.564Z,2.92
2017-08-21T00:07:11.859Z,3.30
2017-08-21T00:09:38.129Z,3.05
2017-08-21T00:12:05.411Z,2.90
2017-08-21T00:14:31.708Z,3.08
2017-08-21T00:16:57.985Z,3.47
2017-08-21T00:19:24.275Z,3.62
2017-08-21T00:21:50.598Z,3.30
2017-08-21T00:24:16.886Z,3.05
2017-08-21T00:26:43.177Z,3.10
2017-08-21T00:29:09.463Z,3.12
2017-08-21T00:31:35.743Z,3.20
2017-08-21T00:34:02.066Z,3.47
2017-08-21T00:36:28.345Z,3.47
2017-08-21T00:38:54.633Z,3.60
2017-08-21T00:41:20.932Z,3.80
2017-08-21T00:43:47.221Z,3.30
2017-08-21T00:46:13.539Z,3.30
2017-08-21T00:48:40.173Z,3.53
2017-08-21T00:51:06.477Z,3.90
2017-08-21T00:53:32.794Z,3.58
2017-08-21T00:55:59.596Z,3.55
2017-08-21T00:58:25.868Z,3.45
2017-08-21T01:00:52.190Z,3.95
2017-08-21T01:03:18.477Z,3.40
2017-08-21T01:05:44.795Z,3.33
2017-08-21T01:08:11.055Z,3.72
2017-08-21T01:10:37.337Z,3.30
2017-08-21T01:13:03.604Z,3.15
2017-08-21T01:15:30.170Z,3.80
2017-08-21T01:17:56.447Z,3.42
2017-08-21T01:20:22.727Z,3.42
2017-08-21T01:22:49.013Z,3.83
2017-08-21T01:25:15.277Z,3.35
2017-08-21T01:27:41.542Z,3.67
2017-08-21T01:30:07.778Z,3.55
2017-08-21T01:32:34.284Z,3.45
2017-08-21T01:35:00.557Z,3.20
2017-08-21T01:37:26.831Z,3.95
2017-08-21T01:39:53.120Z,3.53
2017-08-21T01:42:19.733Z,3.62
2017-08-21T01:44:46.009Z,3.58
2017-08-21T01:47:12.286Z,3.50
2017-08-21T01:49:38.567Z,3.47
2017-08-21T01:52:04.837Z,4.00
2017-08-21T01:54:31.155Z,3.65
2017-08-21T01:56:57.421Z,3.65
2017-08-21T01:59:23.705Z,3.35
2017-08-21T02:01:49.968Z,3.25
2017-08-21T02:04:16.246Z,3.00
2017-08-21T02:06:42.514Z,3.65
2017-08-21T02:09:08.810Z,3.00
2017-08-21T02:11:35.099Z,3.72
2017-08-21T02:14:01.382Z,3.53
2017-08-21T02:16:27.656Z,3.95
2017-08-21T02:18:53.936Z,3.30
2017-08-21T02:21:20.221Z,3.40
2017-08-21T02:23:46.528Z,3.58
2017-08-21T02:26:12.809Z,4.12
2017-08-21T02:28:39.077Z,3.87
2017-08-21T02:31:05.375Z,3.17
2017-08-21T02:33:31.698Z,3.65
2017-08-21T02:35:57.975Z,3.58
2017-08-21T02:38:36.585Z,3.92
2017-08-21T02:41:02.858Z,3.55
2017-08-21T02:43:29.577Z,3.40
2017-08-21T02:45:55.871Z,3.53
2017-08-21T02:48:22.147Z,3.12
2017-08-21T02:50:48.438Z,3.83
2017-08-21T02:53:14.746Z,3.33
2017-08-21T02:55:41.048Z,3.55
2017-08-21T02:58:07.327Z,3.40
2017-08-21T03:00:33.909Z,3.62
2017-08-21T03:03:00.202Z,3.03
2017-08-21T03:05:26.481Z,3.50
2017-08-21T03:07:52.802Z,3.03
2017-08-21T03:10:19.090Z,4.10
2017-08-21T03:12:45.385Z,3.15
2017-08-21T03:15:11.666Z,4.07
2017-08-21T03:17:37.937Z,5.82
2017-08-21T03:20:04.193Z,5.57
2017-08-21T03:22:30.505Z,5.03
2017-08-21T03:24:56.785Z,4.55
2017-08-21T03:27:23.057Z,4.53
2017-08-21T03:29:49.352Z,3.72
2017-08-21T03:32:15.638Z,3.50
2017-08-21T03:34:41.933Z,3.30
2017-08-21T03:37:08.207Z,3.17
2017-08-21T03:39:34.489Z,3.67
2017-08-21T03:42:00.792Z,3.92
2017-08-21T03:44:27.668Z,3.55
2017-08-21T03:46:54.541Z,3.28
2017-08-21T03:49:20.827Z,3.58
2017-08-21T03:51:47.116Z,3.33
2017-08-21T03:54:13.408Z,3.08
2017-08-21T03:56:39.673Z,3.65
2017-08-21T03:59:06.461Z,3.40
2017-08-21T04:01:33.656Z,3.25
2017-08-21T04:03:59.903Z,3.90
2017-08-21T04:06:26.163Z,4.18
2017-08-21T04:08:52.449Z,3.30
2017-08-21T04:11:18.731Z,3.33
2017-08-21T04:13:45.029Z,3.42
2017-08-21T04:16:11.295Z,3.50
2017-08-21T04:18:37.603Z,3.65
2017-08-21T04:21:03.902Z,3.30
2017-08-21T04:23:30.197Z,3.15
2017-08-21T04:25:56.480Z,3.72
2017-08-21T04:28:22.764Z,3.83
2017-08-21T04:30:49.057Z,3.58
2017-08-21T04:33:15.319Z,3.40
2017-08-21T04:35:41.627Z,3.75
2017-08-21T04:38:07.897Z,3.60
2017-08-21T04:40:34.182Z,5.03
2017-08-21T04:43:00.453Z,4.07
2017-08-21T04:45:26.742Z,3.60
2017-08-21T04:47:53.027Z,4.30
2017-08-21T04:50:19.322Z,3.95
2017-08-21T04:52:45.632Z,3.95
2017-08-21T04:55:11.897Z,4.70
2017-08-21T04:57:38.220Z,4.35
2017-08-21T05:00:04.511Z,3.78
2017-08-21T05:02:31.112Z,3.62
2017-08-21T05:04:57.353Z,3.67
2017-08-21T05:07:23.625Z,3.58
2017-08-21T05:09:49.907Z,3.75
2017-08-21T05:12:16.167Z,3.60
2017-08-21T05:14:42.453Z,3.83
2017-08-21T05:17:08.741Z,4.07
2017-08-21T05:19:35.037Z,3.87
2017-08-21T05:22:01.330Z,4.05
2017-08-21T05:24:27.628Z,4.32
2017-08-21T05:26:53.885Z,3.60
2017-08-21T05:29:20.175Z,3.70
2017-08-21T05:31:46.442Z,3.30
2017-08-21T05:34:12.717Z,3.97
2017-08-21T05:36:38.987Z,3.10
2017-08-21T05:39:05.569Z,3.30
2017-08-21T05:41:31.846Z,3.75
2017-08-21T05:43:58.159Z,3.42
2017-08-21T05:46:24.485Z,3.80
2017-08-21T05:48:51.269Z,4.20
2017-08-21T05:51:17.558Z,3.47
2017-08-21T05:53:43.882Z,4.12
2017-08-21T05:56:10.168Z,3.80
2017-08-21T05:58:36.457Z,3.90
2017-08-21T06:01:03.054Z,4.18
2017-08-21T06:03:29.341Z,3.95
2017-08-21T06:05:55.616Z,3.40
2017-08-21T06:08:21.908Z,3.87
2017-08-21T06:10:48.192Z,3.83
2017-08-21T06:13:14.490Z,4.03
2017-08-21T06:15:40.799Z,3.72
2017-08-21T06:18:07.120Z,3.40
2017-08-21T06:20:33.451Z,3.87
2017-08-21T06:22:59.748Z,3.97
2017-08-21T06:25:26.047Z,3.60
2017-08-21T06:27:52.338Z,3.80
2017-08-21T06:30:18.676Z,3.83
2017-08-21T06:32:44.989Z,4.03
2017-08-21T06:35:11.298Z,3.70
2017-08-21T06:37:37.547Z,3.63
2017-08-21T06:40:03.866Z,3.83
2017-08-21T06:42:30.139Z,3.87
2017-08-21T06:44:56.702Z,4.43
2017-08-21T06:47:22.974Z,4.27
2017-08-21T06:49:49.258Z,4.20
2017-08-21T06:52:15.553Z,5.07
2017-08-21T06:54:41.828Z,3.37
2017-08-21T06:57:08.113Z,4.40
2017-08-21T06:59:34.392Z,4.60
2017-08-21T07:02:00.679Z,4.67
2017-08-21T07:04:26.955Z,4.27
2017-08-21T07:06:53.248Z,4.57
2017-08-21T07:09:19.549Z,4.57
2017-08-21T07:11:45.817Z,3.70
2017-08-21T07:14:12.119Z,4.70
2017-08-21T07:16:38.401Z,3.93
2017-08-21T07:19:04.707Z,4.20
2017-08-21T07:21:30.999Z,4.07
2017-08-21T07:23:57.680Z,4.17
2017-08-21T07:26:23.950Z,4.57
2017-08-21T07:28:50.236Z,4.37
2017-08-21T07:31:16.545Z,4.13
2017-08-21T07:33:42.803Z,4.10
2017-08-21T07:36:09.095Z,4.47
2017-08-21T07:38:36.390Z,4.10
2017-08-21T07:41:02.689Z,4.80
2017-08-21T07:43:28.957Z,4.30
2017-08-21T07:45:55.266Z,3.90
2017-08-21T07:48:21.577Z,4.27
2017-08-21T07:50:47.860Z,3.80
2017-08-21T07:53:14.670Z,4.00
2017-08-21T07:55:40.995Z,4.40
2017-08-21T07:58:07.258Z,4.20
2017-08-21T08:00:33.599Z,4.20
2017-08-21T08:02:59.914Z,4.40
2017-08-21T08:05:26.825Z,3.73
2017-08-21T08:07:53.072Z,4.17
2017-08-21T08:10:20.351Z,3.60
2017-08-21T08:12:49.351Z,3.17
2017-08-21T08:15:18.467Z,3.50
2017-08-21T08:17:45.721Z,3.70
2017-08-21T08:20:12.029Z,3.57
2017-08-21T08:22:39.171Z,3.27
2017-08-21T08:25:05.466Z,3.20
2017-08-21T08:27:34.906Z,3.17
2017-08-21T08:30:02.344Z,2.60
2017-08-21T08:32:28.650Z,3.17
2017-08-21T08:34:54.955Z,2.67
2017-08-21T08:37:21.846Z,3.10
2017-08-21T08:39:50.209Z,3.53
2017-08-21T08:42:16.531Z,2.93
2017-08-21T08:44:43.733Z,2.80
2017-08-21T08:47:10.057Z,2.50
2017-08-21T08:49:36.374Z,2.57
2017-08-21T08:52:02.685Z,2.53
2017-08-21T08:54:30.328Z,3.27
2017-08-21T08:56:57.471Z,2.87
2017-08-21T08:59:23.751Z,2.87
2017-08-21T09:01:50.624Z,2.70
2017-08-21T09:04:17.701Z,2.77
2017-08-21T09:06:50.275Z,2.73
2017-08-21T09:09:16.575Z,2.63
2017-08-21T09:11:44.138Z,2.50
2017-08-21T09:14:13.376Z,2.53
2017-08-21T09:16:41.371Z,2.70
2017-08-21T09:19:08.503Z,2.83
2017-08-21T09:21:34.831Z,3.10
2017-08-21T09:24:01.124Z,2.67
2017-08-21T09:26:27.413Z,3.17
2017-08-21T09:28:53.721Z,2.87
2017-08-21T09:31:22.172Z,2.80
2017-08-21T09:33:48.486Z,2.60
2017-08-21T09:36:14.779Z,2.80
2017-08-21T09:38:41.078Z,2.63
2017-08-21T09:41:07.366Z,2.27
2017-08-21T09:43:34.331Z,2.77
2017-08-21T09:46:01.216Z,2.40
2017-08-21T09:48:27.495Z,2.27
2017-08-21T09:50:54.984Z,2.47
2017-08-21T09:53:23.479Z,2.30
2017-08-21T09:55:50.735Z,1.93
2017-08-21T09:58:17.051Z,2.40
2017-08-21T10:00:44.816Z,1.40
2017-08-21T10:03:11.658Z,2.07
2017-08-21T10:05:37.948Z,2.00
2017-08-21T10:08:07.207Z,1.93
2017-08-21T10:10:34.403Z,1.80
2017-08-21T10:13:01.376Z,2.40
2017-08-21T10:15:27.661Z,2.10
2017-08-21T10:17:53.987Z,2.43
2017-08-21T10:20:20.261Z,2.70
2017-08-21T10:22:46.601Z,2.60
2017-08-21T10:25:12.903Z,3.00
2017-08-21T10:27:40.823Z,2.60
2017-08-21T10:30:08.010Z,2.47
2017-08-21T10:32:34.300Z,2.53
2017-08-21T10:35:01.201Z,2.40
2017-08-21T10:37:28.493Z,2.33
2017-08-21T10:39:54.787Z,2.43
2017-08-21T10:42:21.066Z,2.17
2017-08-21T10:44:47.357Z,2.30
2017-08-21T10:47:13.657Z,2.67
2017-08-21T10:49:40.430Z,2.60
2017-08-21T10:52:07.569Z,2.10
2017-08-21T10:54:35.401Z,2.10
2017-08-21T10:57:01.784Z,2.67
2017-08-21T10:59:28.086Z,2.63
2017-08-21T11:01:58.222Z,3.00
2017-08-21T11:04:24.522Z,2.83
2017-08-21T11:06:52.049Z,2.40
2017-08-21T11:09:18.697Z,2.80
2017-08-21T11:11:45.716Z,2.80
2017-08-21T11:14:12.676Z,2.77
2017-08-21T11:16:40.237Z,2.70
2017-08-21T11:19:07.473Z,3.00
2017-08-21T11:21:35.483Z,2.83
2017-08-21T11:24:01.789Z,2.20
2017-08-21T11:26:28.671Z,2.60
2017-08-21T11:28:56.347Z,2.50
2017-08-21T11:31:22.679Z,2.90
2017-08-21T11:33:48.966Z,2.60
2017-08-21T11:36:16.212Z,2.43
2017-08-21T11:38:43.460Z,2.70
2017-08-21T11:41:10.646Z,2.47
2017-08-21T11:43:36.953Z,2.60
2017-08-21T11:46:03.271Z,2.27
2017-08-21T11:48:30.549Z,3.13
2017-08-21T11:50:56.841Z,2.40
2017-08-21T11:53:23.080Z,2.63
2017-08-21T11:55:49.366Z,2.33
2017-08-21T11:58:15.654Z,2.70
2017-08-21T12:00:41.936Z,2.40
2017-08-21T12:03:08.237Z,2.70
2017-08-21T12:05:34.563Z,2.40
2017-08-21T12:08:00.865Z,2.47
2017-08-21T12:10:27.145Z,2.50
2017-08-21T12:12:53.428Z,2.20
2017-08-21T12:15:19.711Z,2.50
2017-08-21T12:17:46.003Z,2.70
2017-08-21T12:20:12.279Z,2.30
2017-08-21T12:22:38.580Z,2.50
2017-08-21T12:25:04.853Z,2.00
2017-08-21T12:27:31.159Z,2.20
2017-08-21T12:29:57.450Z,3.03
2017-08-21T12:32:23.772Z,2.40
2017-08-21T12:34:50.079Z,2.50
2017-08-21T12:37:16.418Z,2.10
2017-08-21T12:39:42.709Z,2.50
2017-08-21T12:42:08.984Z,2.53
2017-08-21T12:44:35.283Z,2.33
2017-08-21T12:47:01.614Z,2.47
2017-08-21T12:49:28.860Z,2.83
2017-08-21T12:51:57.037Z,2.73
2017-08-21T12:54:23.320Z,2.63
2017-08-21T12:56:49.630Z,2.57
2017-08-21T12:59:15.962Z,2.60
2017-08-21T13:01:42.233Z,2.70
2017-08-21T13:04:08.584Z,2.40
2017-08-21T13:06:34.875Z,2.67
2017-08-21T13:09:01.197Z,2.43
2017-08-21T13:11:27.535Z,2.53
2017-08-21T13:13:53.852Z,2.63
2017-08-21T13:16:20.139Z,2.70
2017-08-21T13:18:46.455Z,2.43
2017-08-21T13:21:12.748Z,2.20
2017-08-21T13:23:39.049Z,2.60
2017-08-21T13:26:05.350Z,2.63
2017-08-21T13:28:31.667Z,2.73
2017-08-21T13:30:57.983Z,2.50
2017-08-21T13:33:24.265Z,2.93
2017-08-21T13:35:50.593Z,2.93
2017-08-21T13:38:18.341Z,2.30
2017-08-21T13:40:44.643Z,2.70
2017-08-21T13:43:10.988Z,2.70
2017-08-21T13:45:37.885Z,2.70
2017-08-21T13:48:04.237Z,2.77
2017-08-21T13:50:31.383Z,2.40
2017-08-21T13:52:57.705Z,2.67
2017-08-21T13:55:24.003Z,2.53
2017-08-21T13:57:50.298Z,2.47
2017-08-21T14:00:16.620Z,2.20
2017-08-21T14:02:43.764Z,2.93
2017-08-21T14:05:10.057Z,2.87
2017-08-21T14:07:36.371Z,2.00
2017-08-21T14:10:02.684Z,2.33
2017-08-21T14:12:28.941Z,2.67
2017-08-21T14:14:55.922Z,2.60
2017-08-21T14:17:22.237Z,3.00
2017-08-21T14:19:48.898Z,2.23
2017-08-21T14:22:15.214Z,2.43
2017-08-21T14:24:41.503Z,2.70
2017-08-21T14:27:07.801Z,2.60
2017-08-21T14:29:34.116Z,3.03
2017-08-21T14:32:01.190Z,2.53
2017-08-21T14:34:30.442Z,2.90
2017-08-21T14:36:56.781Z,2.40
2017-08-21T14:39:23.071Z,2.47
2017-08-21T14:42:17.276Z,2.57
2017-08-21T14:44:43.586Z,2.73
2017-08-21T14:47:09.933Z,2.30
2017-08-21T14:49:36.828Z,2.37
2017-08-21T14:52:03.164Z,2.37
2017-08-21T14:54:29.870Z,2.50
2017-08-21T14:56:56.157Z,2.57
2017-08-21T14:59:22.473Z,2.93
2017-08-21T15:01:48.768Z,2.20
2017-08-21T15:04:16.125Z,2.20
2017-08-21T15:06:42.545Z,3.07
2017-08-21T15:09:11.924Z,1.87
2017-08-21T15:11:38.311Z,2.43
2017-08-21T15:14:05.587Z,2.70
2017-08-21T15:16:33.384Z,3.20
2017-08-21T15:18:59.700Z,3.13
2017-08-21T15:21:26.021Z,2.30
2017-08-21T15:23:52.349Z,2.60
2017-08-21T15:26:18.678Z,2.37
2017-08-21T15:28:44.961Z,2.83
2017-08-21T15:31:11.258Z,2.50
2017-08-21T15:33:37.604Z,2.23
2017-08-21T15:36:03.909Z,2.97
2017-08-21T15:38:30.226Z,2.43
2017-08-21T15:40:56.578Z,2.33
2017-08-21T15:43:22.856Z,2.20
2017-08-21T15:45:49.177Z,2.50
2017-08-21T15:48:15.509Z,2.40
2017-08-21T15:50:41.853Z,2.43
2017-08-21T15:53:08.164Z,2.90
2017-08-21T15:55:34.758Z,3.27
2017-08-21T15:58:01.075Z,2.70
2017-08-21T16:00:27.429Z,2.30
2017-08-21T16:02:53.756Z,2.50
2017-08-21T16:05:20.077Z,2.90
2017-08-21T16:07:46.399Z,2.50
2017-08-21T16:10:12.698Z,2.67
2017-08-21T16:12:39.107Z,3.10
2017-08-21T16:15:05.393Z,2.70
2017-08-21T16:17:31.727Z,3.10
2017-08-21T16:19:58.016Z,2.40
2017-08-21T16:22:24.316Z,2.40
2017-08-21T16:24:50.622Z,2.80
2017-08-21T16:27:17.939Z,2.37
2017-08-21T16:29:44.234Z,2.80
2017-08-21T16:32:10.545Z,2.93
2017-08-21T16:34:36.868Z,2.70
2017-08-21T16:37:03.154Z,2.70
2017-08-21T16:39:29.454Z,2.47
2017-08-21T16:41:55.752Z,2.60
2017-08-21T16:44:22.597Z,2.53
2017-08-21T16:46:48.878Z,2.57
2017-08-21T16:49:15.201Z,2.70
2017-08-21T16:51:41.481Z,2.80
2017-08-21T16:54:08.630Z,2.50
2017-08-21T16:56:34.952Z,2.47
2017-08-21T16:59:01.261Z,3.03
2017-08-21T17:01:27.623Z,2.90
2017-08-21T17:03:53.940Z,2.53
2017-08-21T17:06:20.253Z,3.40
2017-08-21T17:08:46.611Z,2.47
2017-08-21T17:11:12.894Z,2.33
2017-08-21T17:13:39.211Z,3.00
2017-08-21T17:16:06.070Z,2.70
2017-08-21T17:18:32.411Z,2.57
2017-08-21T17:20:58.683Z,2.73
2017-08-21T17:23:25.013Z,2.60
2017-08-21T17:25:51.453Z,2.23
2017-08-21T17:28:17.804Z,2.60
2017-08-21T17:30:44.090Z,2.40
2017-08-21T17:33:10.369Z,2.30
2017-08-21T17:35:36.679Z,2.77
2017-08-21T17:38:02.986Z,2.23
2017-08-21T17:40:29.314Z,2.03
2017-08-21T17:42:55.589Z,3.00
2017-08-21T17:45:21.907Z,2.97
2017-08-21T17:47:48.196Z,2.67
2017-08-21T17:50:14.512Z,2.37
2017-08-21T17:52:40.807Z,2.70
2017-08-21T17:55:07.105Z,3.13
2017-08-21T17:57:33.454Z,2.43
2017-08-21T17:59:59.770Z,2.50
2017-08-21T18:02:26.112Z,2.80
2017-08-21T18:04:52.400Z,2.80
2017-08-21T18:07:18.721Z,2.50
2017-08-21T18:09:45.646Z,3.00
2017-08-21T18:12:12.018Z,3.10
2017-08-21T18:14:38.309Z,2.50
2017-08-21T18:17:04.625Z,2.10
2017-08-21T18:19:30.909Z,3.00
2017-08-21T18:21:57.195Z,3.10
2017-08-21T18:24:23.526Z,3.20
2017-08-21T18:26:49.822Z,3.50
2017-08-21T18:29:16.179Z,3.50
2017-08-21T18:31:42.484Z,3.07
2017-08-21T18:34:08.803Z,3.20
2017-08-21T18:36:35.103Z,3.97
2017-08-21T18:39:01.411Z,3.40
2017-08-21T18:41:27.715Z,4.03
2017-08-21T18:43:54.901Z,3.10
2017-08-21T18:46:21.218Z,2.93
2017-08-21T18:48:47.537Z,3.20
2017-08-21T18:51:14.306Z,2.80
2017-08-21T18:53:40.636Z,2.93
2017-08-21T18:56:06.967Z,3.10
2017-08-21T18:58:33.319Z,2.57
2017-08-21T19:00:59.635Z,3.00
2017-08-21T19:03:25.938Z,3.03
2017-08-21T19:05:52.226Z,3.37
2017-08-21T19:08:18.547Z,2.67
2017-08-21T19:10:44.849Z,3.10
2017-08-21T19:13:12.521Z,2.73
2017-08-21T19:15:38.852Z,3.10
2017-08-21T19:18:05.160Z,3.23
2017-08-21T19:20:31.461Z,2.83
2017-08-21T19:22:58.685Z,2.63
2017-08-21T19:25:25.001Z,2.73
2017-08-21T19:27:51.281Z,2.87
2017-08-21T19:30:18.227Z,3.33
2017-08-21T19:32:44.534Z,3.33
2017-08-21T19:35:10.856Z,2.47
2017-08-21T19:37:37.189Z,3.50
2017-08-21T19:40:04.494Z,2.97
2017-08-21T19:42:30.782Z,3.10
2017-08-21T19:44:57.082Z,4.40
2017-08-21T19:47:23.407Z,3.80
2017-08-21T19:49:49.737Z,4.03
2017-08-21T19:52:16.059Z,3.90
2017-08-21T19:54:42.363Z,4.27
2017-08-21T19:57:08.681Z,4.03
2017-08-21T19:59:34.978Z,3.42
2017-08-21T20:02:01.685Z,3.10
2017-08-21T20:04:27.991Z,3.80
2017-08-21T20:06:54.316Z,3.75
2017-08-21T20:09:20.698Z,3.87
2017-08-21T20:11:47.007Z,2.70
2017-08-21T20:14:13.323Z,3.75
2017-08-21T20:16:40.537Z,3.55
2017-08-21T20:19:08.452Z,3.95
2017-08-21T20:21:34.791Z,3.30
2017-08-21T20:24:01.108Z,4.15
2017-08-21T20:26:27.420Z,3.40
2017-08-21T20:28:53.820Z,3.53
2017-08-21T20:31:20.225Z,3.78
2017-08-21T20:33:46.576Z,3.15
2017-08-21T20:36:14.179Z,4.25
2017-08-21T20:38:40.537Z,3.45
2017-08-21T20:41:06.874Z,3.40
2017-08-21T20:43:33.224Z,4.55
2017-08-21T20:45:59.519Z,3.95
2017-08-21T20:48:25.878Z,3.92
2017-08-21T20:50:52.227Z,3.87
2017-08-21T20:53:19.306Z,3.65
2017-08-21T20:55:46.588Z,4.10
2017-08-21T20:58:12.908Z,3.53
2017-08-21T21:00:39.995Z,4.28
2017-08-21T21:03:06.298Z,4.18
2017-08-21T21:05:32.597Z,5.00
2017-08-21T21:07:58.901Z,3.50
2017-08-21T21:10:25.222Z,4.53
2017-08-21T21:12:51.517Z,3.25
2017-08-21T21:15:17.820Z,3.60
2017-08-21T21:17:44.100Z,3.10
2017-08-21T21:20:10.670Z,2.78
2017-08-21T21:22:36.973Z,3.47
2017-08-21T21:25:03.287Z,3.35
2017-08-21T21:27:29.605Z,3.25
2017-08-21T21:29:55.899Z,4.05
2017-08-21T21:32:22.901Z,2.50
2017-08-21T21:34:49.186Z,3.20
2017-08-21T21:37:15.757Z,2.80
2017-08-21T21:39:42.045Z,3.67
2017-08-21T21:42:08.373Z,3.70
2017-08-21T21:44:38.099Z,2.97
2017-08-21T21:47:04.448Z,3.35
2017-08-21T21:49:30.738Z,3.28
2017-08-21T21:51:57.029Z,2.97
2017-08-21T21:54:23.320Z,3.30
2017-08-21T21:56:49.596Z,3.42
2017-08-21T21:59:15.900Z,3.00
2017-08-21T22:01:42.170Z,3.70
2017-08-21T22:04:08.510Z,3.35
2017-08-21T22:06:34.783Z,3.35
2017-08-21T22:09:01.145Z,4.00
2017-08-21T22:11:27.477Z,3.67
2017-08-21T22:13:53.771Z,3.58
2017-08-21T22:16:20.088Z,3.20
2017-08-21T22:18:46.362Z,3.62
2017-08-21T22:21:12.637Z,3.80
2017-08-21T22:23:38.919Z,3.97
2017-08-21T22:26:05.235Z,3.78
2017-08-21T22:28:31.511Z,4.40
2017-08-21T22:30:58.141Z,3.62
2017-08-21T22:33:24.445Z,3.95
2017-08-21T22:35:50.720Z,4.30
2017-08-21T22:38:17.019Z,3.78
2017-08-21T22:40:43.310Z,3.90
2017-08-21T22:43:09.615Z,4.72
2017-08-21T22:45:35.898Z,4.30
2017-08-21T22:48:02.198Z,4.22
2017-08-21T22:50:28.457Z,4.35
2017-08-21T22:52:54.768Z,4.68
2017-08-21T22:55:21.036Z,3.90
2017-08-21T22:57:47.678Z,3.62
2017-08-21T23:00:13.985Z,3.85
2017-08-21T23:02:40.270Z,4.40
2017-08-21T23:05:06.562Z,3.97
2017-08-21T23:07:33.435Z,4.00
2017-08-21T23:09:59.729Z,4.03
2017-08-21T23:12:25.988Z,4.28
2017-08-21T23:14:52.281Z,4.07
2017-08-21T23:17:18.557Z,4.55
2017-08-21T23:19:44.861Z,3.90
2017-08-21T23:22:11.915Z,3.65
2017-08-21T23:24:38.183Z,4.60
2017-08-21T23:27:04.437Z,4.32
2017-08-21T23:29:30.747Z,3.85
2017-08-21T23:31:57.046Z,3.72
2017-08-21T23:34:23.324Z,4.30
2017-08-21T23:36:49.622Z,4.57
2017-08-21T23:39:15.921Z,4.30
2017-08-21T23:41:42.196Z,3.90
2017-08-21T23:44:11.970Z,3.60
2017-08-21T23:46:39.868Z,3.90
2017-08-21T23:49:06.177Z,4.25
2017-08-21T23:51:32.426Z,4.03
2017-08-21T23:53:58.722Z,3.40
2017-08-21T23:56:25.003Z,4.78
2017-08-21T23:58:51.301Z,4.60
